Time;durP1;ratioP1;P1;durP2;ratioP2;P2;SDS_P1;SDS_P2;PMS_P1;PMS_P2;Temp;Humidity;BMP_temperature;BMP_pressure;BME280_temperature;BME280_humidity;BME280_pressure;Samples;Min_cycle;Max_cycle;Signal;HPM_P1;HPM_P2
2021/10/18 00:01:21;;;;;;;2.60;2.40;;;8.20;99.90;;;;;;5023237;28;20218;-69
2021/10/18 00:03:46;;;;;;;1.03;0.87;;;8.20;99.90;;;;;;5021926;28;20184;-69
2021/10/18 00:06:12;;;;;;;0.70;0.50;;;8.20;99.90;;;;;;5014177;28;20208;-70
2021/10/18 00:08:38;;;;;;;1.00;0.93;;;8.30;99.90;;;;;;5032179;28;20263;-71
2021/10/18 00:11:04;;;;;;;0.90;0.70;;;8.20;99.90;;;;;;5033494;28;20184;-70
2021/10/18 00:13:30;;;;;;;1.10;0.70;;;8.20;99.90;;;;;;5025587;28;20259;-69
2021/10/18 00:15:56;;;;;;;3.23;2.93;;;8.20;99.90;;;;;;5031407;28;21018;-69
2021/10/18 00:18:22;;;;;;;4.93;1.80;;;8.30;99.90;;;;;;5021594;28;20203;-69
2021/10/18 00:20:48;;;;;;;1.00;0.90;;;8.20;99.90;;;;;;5015770;28;20426;-68
2021/10/18 00:23:14;;;;;;;0.70;0.50;;;8.20;99.90;;;;;;5025876;28;20437;-69
2021/10/18 00:25:39;;;;;;;0.97;0.70;;;8.00;99.90;;;;;;5019109;28;20231;-68
2021/10/18 00:28:05;;;;;;;0.80;0.60;;;8.00;99.90;;;;;;5023250;28;20210;-68
2021/10/18 00:30:31;;;;;;;0.70;0.50;;;7.90;99.90;;;;;;5019546;28;20203;-69
2021/10/18 00:32:57;;;;;;;0.80;0.70;;;7.80;99.90;;;;;;5014424;28;20427;-69
2021/10/18 00:35:22;;;;;;;1.67;0.80;;;7.70;99.90;;;;;;5013623;28;20192;-69
2021/10/18 00:37:48;;;;;;;0.70;0.60;;;7.70;99.90;;;;;;5014419;28;20180;-69
2021/10/18 00:40:14;;;;;;;0.70;0.50;;;7.70;99.90;;;;;;5016268;28;20218;-69
2021/10/18 00:42:40;;;;;;;1.10;1.00;;;7.70;99.90;;;;;;5030404;28;20190;-68
2021/10/18 00:45:07;;;;;;;14.23;1.37;;;7.70;99.90;;;;;;5015646;28;20463;-69
2021/10/18 00:47:33;;;;;;;0.80;0.70;;;7.70;99.90;;;;;;5018199;28;20471;-69
2021/10/18 00:49:59;;;;;;;1.33;1.23;;;7.70;99.90;;;;;;5032758;28;20588;-70
2021/10/18 00:52:24;;;;;;;1.23;1.13;;;7.70;99.90;;;;;;5026281;28;20736;-70
2021/10/18 00:54:52;;;;;;;3.30;1.10;;;7.70;99.90;;;;;;5027764;28;20545;-70
2021/10/18 00:57:18;;;;;;;0.70;0.50;;;7.70;99.90;;;;;;5025446;28;20199;-70
2021/10/18 00:59:45;;;;;;;0.70;0.50;;;7.70;99.90;;;;;;5022572;28;20439;-69
2021/10/18 01:02:10;;;;;;;0.90;0.70;;;7.70;99.90;;;;;;5018671;28;20530;-69
2021/10/18 01:04:36;;;;;;;0.87;0.87;;;7.60;99.90;;;;;;5013779;28;20928;-69
2021/10/18 01:07:02;;;;;;;0.70;0.50;;;7.70;99.90;;;;;;5013443;28;20298;-68
2021/10/18 01:09:28;;;;;;;1.07;0.97;;;7.70;99.90;;;;;;5018095;28;20179;-69
2021/10/18 01:11:53;;;;;;;0.70;0.50;;;7.70;99.90;;;;;;5020848;28;20521;-69
2021/10/18 01:14:19;;;;;;;0.77;0.67;;;7.70;99.90;;;;;;5013605;28;20599;-68
2021/10/18 01:16:45;;;;;;;1.10;0.80;;;7.60;99.90;;;;;;5022203;28;20176;-69
2021/10/18 01:19:11;;;;;;;0.87;0.67;;;7.60;99.90;;;;;;5025335;28;20191;-69
2021/10/18 01:21:38;;;;;;;0.70;0.60;;;7.60;99.90;;;;;;5018967;28;20184;-69
2021/10/18 01:24:04;;;;;;;0.70;0.50;;;7.50;99.90;;;;;;5034935;28;20438;-70
2021/10/18 01:26:29;;;;;;;0.93;0.93;;;7.50;99.90;;;;;;5028120;28;20465;-71
2021/10/18 01:28:55;;;;;;;0.70;0.50;;;7.40;99.90;;;;;;5019019;28;20238;-69
2021/10/18 01:31:20;;;;;;;0.70;0.50;;;7.40;99.90;;;;;;5025210;28;20176;-70
2021/10/18 01:33:47;;;;;;;1.43;1.33;;;7.40;99.90;;;;;;5017200;28;20262;-70
2021/10/18 01:36:13;;;;;;;1.73;0.90;;;7.40;99.90;;;;;;5018926;28;20202;-70
2021/10/18 01:38:38;;;;;;;2.73;1.00;;;7.30;99.90;;;;;;5018305;28;20487;-70
2021/10/18 01:41:04;;;;;;;1.13;0.60;;;7.30;99.90;;;;;;5014195;28;20280;-70
2021/10/18 01:43:29;;;;;;;0.70;0.50;;;7.30;99.90;;;;;;5013352;28;20179;-70
2021/10/18 01:45:55;;;;;;;0.70;0.50;;;7.20;99.90;;;;;;5016147;28;20262;-71
2021/10/18 01:48:21;;;;;;;1.23;1.13;;;7.20;99.90;;;;;;5015246;28;20185;-70
2021/10/18 01:50:47;;;;;;;0.87;0.67;;;7.20;99.90;;;;;;5015579;28;20206;-70
2021/10/18 01:53:12;;;;;;;0.70;0.50;;;7.10;99.90;;;;;;5013509;28;20952;-70
2021/10/18 01:55:38;;;;;;;0.90;0.90;;;7.10;99.90;;;;;;5012552;28;20201;-70
2021/10/18 01:58:03;;;;;;;0.87;0.70;;;7.20;99.90;;;;;;5012899;28;20211;-70
2021/10/18 02:00:29;;;;;;;0.70;0.50;;;7.20;99.90;;;;;;5015146;28;20549;-69
2021/10/18 02:02:54;;;;;;;1.03;0.93;;;7.10;99.90;;;;;;5011098;28;20752;-70
2021/10/18 02:05:20;;;;;;;0.80;0.80;;;7.20;99.90;;;;;;5012308;28;20281;-70
2021/10/18 02:07:46;;;;;;;0.80;0.70;;;7.10;99.90;;;;;;5016996;28;20235;-70
2021/10/18 02:10:12;;;;;;;1.70;1.47;;;7.10;99.90;;;;;;5021301;28;20187;-70
2021/10/18 02:12:38;;;;;;;0.70;0.50;;;7.10;99.90;;;;;;5013768;28;20165;-70
2021/10/18 02:15:05;;;;;;;0.80;0.70;;;7.10;99.90;;;;;;5029366;28;20442;-68
2021/10/18 02:17:31;;;;;;;0.80;0.73;;;7.10;99.90;;;;;;5032122;28;20464;-68
2021/10/18 02:19:56;;;;;;;2.60;2.40;;;7.10;99.90;;;;;;5030468;28;20429;-69
2021/10/18 02:22:22;;;;;;;2.23;1.63;;;7.10;99.90;;;;;;5013716;28;20187;-68
2021/10/18 02:24:47;;;;;;;1.83;1.73;;;7.10;99.90;;;;;;5014926;28;20235;-69
2021/10/18 02:27:13;;;;;;;0.80;0.80;;;7.10;99.90;;;;;;5012650;28;20200;-69
2021/10/18 02:29:38;;;;;;;0.80;0.70;;;7.00;99.90;;;;;;5012681;28;20172;-70
2021/10/18 02:32:04;;;;;;;0.70;0.70;;;7.00;99.90;;;;;;5025796;28;20180;-68
2021/10/18 02:34:30;;;;;;;0.80;0.60;;;7.00;99.90;;;;;;5015793;28;20200;-69
2021/10/18 02:36:55;;;;;;;0.70;0.50;;;6.90;99.90;;;;;;5029967;28;20458;-69
2021/10/18 02:39:21;;;;;;;1.53;1.43;;;6.90;99.90;;;;;;5020902;28;20163;-69
2021/10/18 02:41:46;;;;;;;0.70;0.50;;;6.80;99.90;;;;;;5029642;28;20184;-69
2021/10/18 02:44:12;;;;;;;1.23;1.13;;;6.80;99.90;;;;;;5025819;28;20633;-70
2021/10/18 02:46:38;;;;;;;0.80;0.73;;;6.80;99.90;;;;;;5013905;28;20203;-70
2021/10/18 02:49:03;;;;;;;0.77;0.70;;;6.80;99.90;;;;;;5020573;28;20185;-69
2021/10/18 02:51:29;;;;;;;0.80;0.60;;;6.80;99.90;;;;;;5031573;28;20526;-70
2021/10/18 02:53:54;;;;;;;0.70;0.50;;;6.80;99.90;;;;;;5014591;28;20178;-70
2021/10/18 02:56:20;;;;;;;1.67;1.57;;;6.80;99.90;;;;;;5029059;28;20577;-69
2021/10/18 02:58:45;;;;;;;2.37;2.03;;;6.80;99.90;;;;;;5027318;28;20191;-69
2021/10/18 03:01:11;;;;;;;3.13;1.03;;;6.70;99.90;;;;;;5016767;28;20632;-69
2021/10/18 03:03:36;;;;;;;0.70;0.60;;;6.70;99.90;;;;;;5024808;28;20211;-69
2021/10/18 03:06:02;;;;;;;0.80;0.60;;;6.60;99.90;;;;;;5019679;28;20250;-70
2021/10/18 03:08:28;;;;;;;0.70;0.50;;;6.60;99.90;;;;;;5024376;28;20508;-69
2021/10/18 03:10:54;;;;;;;0.70;0.50;;;6.50;99.90;;;;;;5024856;28;20462;-69
2021/10/18 03:13:20;;;;;;;0.70;0.50;;;6.50;99.90;;;;;;5028821;28;20171;-69
2021/10/18 03:15:45;;;;;;;0.70;0.60;;;6.50;99.90;;;;;;5031478;28;20215;-70
2021/10/18 03:18:11;;;;;;;0.70;0.50;;;6.60;99.90;;;;;;5023644;28;20802;-69
2021/10/18 03:20:37;;;;;;;0.70;0.60;;;6.60;99.90;;;;;;5026225;28;20629;-70
2021/10/18 03:23:03;;;;;;;0.70;0.50;;;6.60;99.90;;;;;;5015328;28;20192;-70
2021/10/18 03:25:34;;;;;;;1.53;1.20;;;6.50;99.90;;;;;;5018629;28;20295;-69
2021/10/18 03:27:59;;;;;;;0.70;0.53;;;6.50;99.90;;;;;;5015839;28;20487;-69
2021/10/18 03:30:25;;;;;;;3.00;2.00;;;6.50;99.90;;;;;;5030250;28;20414;-70
2021/10/18 03:32:50;;;;;;;0.70;0.50;;;6.40;99.90;;;;;;5027174;28;20725;-69
2021/10/18 03:35:16;;;;;;;0.70;0.60;;;6.40;99.90;;;;;;5023580;28;20239;-70
2021/10/18 03:37:42;;;;;;;0.87;0.77;;;6.50;99.90;;;;;;5034359;28;20183;-69
2021/10/18 03:40:10;;;;;;;0.80;0.80;;;6.50;99.90;;;;;;5031647;28;20187;-70
2021/10/18 03:42:37;;;;;;;3.07;2.77;;;6.50;99.90;;;;;;5027847;28;20183;-70
2021/10/18 03:45:04;;;;;;;1.90;0.87;;;6.50;99.90;;;;;;5030376;28;20461;-70
2021/10/18 03:47:30;;;;;;;0.70;0.50;;;6.40;99.90;;;;;;5031778;28;20870;-70
2021/10/18 03:49:55;;;;;;;0.80;0.77;;;6.40;99.90;;;;;;5029877;28;20438;-70
2021/10/18 03:52:22;;;;;;;0.70;0.50;;;6.40;99.90;;;;;;5020799;28;20233;-70
2021/10/18 03:54:48;;;;;;;1.00;0.60;;;6.40;99.90;;;;;;5023734;28;20681;-69
2021/10/18 03:57:13;;;;;;;0.70;0.60;;;6.50;99.90;;;;;;5015581;28;20482;-69
2021/10/18 03:59:39;;;;;;;0.70;0.50;;;6.50;99.90;;;;;;5028997;28;20254;-69
2021/10/18 04:02:06;;;;;;;0.70;0.50;;;6.50;99.90;;;;;;5021555;28;20263;-69
2021/10/18 04:04:32;;;;;;;0.70;0.50;;;6.40;99.90;;;;;;5017574;28;20200;-69
2021/10/18 04:06:58;;;;;;;0.70;0.40;;;6.30;99.90;;;;;;5014663;28;20462;-70
2021/10/18 04:09:23;;;;;;;0.70;0.60;;;6.20;99.90;;;;;;5020987;28;20438;-70
2021/10/18 04:11:49;;;;;;;1.83;1.33;;;6.20;99.90;;;;;;5014871;28;21613;-69
2021/10/18 04:14:14;;;;;;;0.90;0.73;;;6.10;99.90;;;;;;5019465;28;20583;-69
2021/10/18 04:16:40;;;;;;;0.70;0.50;;;6.10;99.90;;;;;;5017901;28;20191;-69
2021/10/18 04:19:05;;;;;;;0.80;0.60;;;6.10;99.90;;;;;;5022585;28;20645;-70
2021/10/18 04:21:31;;;;;;;0.70;0.50;;;6.20;99.90;;;;;;5017357;28;20652;-70
2021/10/18 04:23:56;;;;;;;0.80;0.67;;;6.20;99.90;;;;;;5027282;28;20652;-70
2021/10/18 04:26:22;;;;;;;0.83;0.70;;;6.20;99.90;;;;;;5017117;28;20234;-70
2021/10/18 04:28:48;;;;;;;0.70;0.60;;;6.20;99.90;;;;;;5021026;28;20175;-70
2021/10/18 04:31:13;;;;;;;1.20;1.10;;;6.20;99.90;;;;;;5033383;28;20254;-70
2021/10/18 04:33:39;;;;;;;0.70;0.50;;;6.20;99.90;;;;;;5020904;28;20183;-69
2021/10/18 04:36:04;;;;;;;0.70;0.50;;;6.10;99.90;;;;;;5026084;28;20201;-70
2021/10/18 04:38:30;;;;;;;1.23;1.13;;;6.00;99.90;;;;;;5027934;28;20163;-70
2021/10/18 04:40:56;;;;;;;0.70;0.53;;;6.00;99.90;;;;;;5033756;28;20710;-70
2021/10/18 04:43:21;;;;;;;0.70;0.50;;;6.00;99.90;;;;;;5027075;28;20200;-69
2021/10/18 04:45:47;;;;;;;0.70;0.50;;;6.00;99.90;;;;;;5020375;28;20245;-70
2021/10/18 04:48:13;;;;;;;0.70;0.50;;;6.00;99.90;;;;;;5025903;28;20233;-70
2021/10/18 04:50:38;;;;;;;0.80;0.80;;;6.00;99.90;;;;;;5027058;28;20175;-69
2021/10/18 04:53:04;;;;;;;0.70;0.57;;;6.00;99.90;;;;;;5015188;28;20181;-70
2021/10/18 04:55:29;;;;;;;0.70;0.50;;;6.10;99.90;;;;;;5020855;28;20596;-70
2021/10/18 04:57:57;;;;;;;0.77;0.60;;;6.10;99.90;;;;;;5031499;28;20226;-71
2021/10/18 05:00:25;;;;;;;0.70;0.60;;;6.10;99.90;;;;;;5020600;28;20612;-70
2021/10/18 05:02:51;;;;;;;0.70;0.50;;;6.10;99.90;;;;;;5027305;28;20431;-69
2021/10/18 05:05:17;;;;;;;1.00;0.90;;;6.00;99.90;;;;;;5017683;28;20454;-69
2021/10/18 05:07:44;;;;;;;1.90;1.80;;;6.00;99.90;;;;;;5014310;28;20489;-71
2021/10/18 05:10:13;;;;;;;0.70;0.50;;;6.10;99.90;;;;;;5015319;28;20473;-70
2021/10/18 05:12:39;;;;;;;0.70;0.50;;;6.00;99.90;;;;;;5026294;28;20538;-69
2021/10/18 05:15:07;;;;;;;0.70;0.60;;;6.10;99.90;;;;;;5012976;28;20482;-69
2021/10/18 05:17:34;;;;;;;0.70;0.70;;;6.10;99.90;;;;;;5017608;28;20441;-70
2021/10/18 05:20:00;;;;;;;0.93;0.80;;;6.10;99.90;;;;;;5021149;28;20932;-70
2021/10/18 05:22:26;;;;;;;0.70;0.50;;;6.10;99.90;;;;;;5018624;28;20480;-69
2021/10/18 05:24:51;;;;;;;1.00;0.90;;;6.10;99.90;;;;;;5024113;28;20203;-69
2021/10/18 05:27:17;;;;;;;1.00;0.90;;;6.10;99.90;;;;;;5019850;28;20253;-69
2021/10/18 05:29:42;;;;;;;0.70;0.50;;;6.00;99.90;;;;;;5012029;28;20200;-69
2021/10/18 05:32:08;;;;;;;0.70;0.60;;;6.00;99.90;;;;;;5018105;28;20594;-69
2021/10/18 05:34:33;;;;;;;0.70;0.50;;;6.00;99.90;;;;;;5023740;28;20207;-69
2021/10/18 05:36:59;;;;;;;0.70;0.50;;;6.00;99.90;;;;;;5016532;28;20180;-69
2021/10/18 05:39:24;;;;;;;0.70;0.60;;;6.00;99.90;;;;;;5021646;28;20534;-69
2021/10/18 05:41:50;;;;;;;0.70;0.50;;;6.00;99.90;;;;;;5024553;28;20164;-70
2021/10/18 05:44:16;;;;;;;0.70;0.50;;;6.00;99.90;;;;;;5024257;28;20176;-70
2021/10/18 05:46:41;;;;;;;0.70;0.50;;;6.00;99.90;;;;;;5013543;28;20254;-70
2021/10/18 05:49:07;;;;;;;2.40;1.00;;;6.00;99.90;;;;;;5028739;28;20250;-68
2021/10/18 05:51:32;;;;;;;0.80;0.67;;;6.00;99.90;;;;;;5026061;28;20256;-70
2021/10/18 05:53:59;;;;;;;0.70;0.63;;;6.00;99.90;;;;;;5023390;28;20188;-68
2021/10/18 05:56:24;;;;;;;0.70;0.50;;;6.00;99.90;;;;;;5024644;28;20207;-70
2021/10/18 05:58:50;;;;;;;0.70;0.70;;;6.00;99.90;;;;;;5022144;28;20442;-68
2021/10/18 06:01:15;;;;;;;1.37;1.00;;;6.00;99.90;;;;;;5013015;28;20208;-69
2021/10/18 06:03:41;;;;;;;0.70;0.50;;;6.00;99.90;;;;;;5019967;28;20172;-69
2021/10/18 06:06:08;;;;;;;1.93;1.83;;;6.00;99.90;;;;;;5016847;28;20199;-69
2021/10/18 06:08:34;;;;;;;0.70;0.60;;;5.90;99.90;;;;;;5020885;28;20184;-69
2021/10/18 06:11:00;;;;;;;0.70;0.50;;;5.90;99.90;;;;;;5025443;28;20865;-70
2021/10/18 06:13:26;;;;;;;0.70;0.57;;;5.90;99.90;;;;;;5014739;28;20518;-70
2021/10/18 06:15:54;;;;;;;0.70;0.60;;;5.90;99.90;;;;;;5012392;28;20467;-70
2021/10/18 06:18:19;;;;;;;0.70;0.50;;;5.90;99.90;;;;;;5015528;28;20184;-70
2021/10/18 06:20:48;;;;;;;1.13;1.03;;;6.00;99.90;;;;;;5013762;28;20893;-70
2021/10/18 06:23:15;;;;;;;0.80;0.60;;;6.00;99.90;;;;;;5020305;28;20254;-70
2021/10/18 06:25:42;;;;;;;0.70;0.57;;;5.90;99.90;;;;;;5020735;28;20447;-70
2021/10/18 06:28:08;;;;;;;0.70;0.50;;;5.90;99.90;;;;;;5026173;28;20458;-70
2021/10/18 06:30:34;;;;;;;0.70;0.50;;;6.00;99.90;;;;;;5029426;28;20465;-70
2021/10/18 06:33:00;;;;;;;0.80;0.70;;;6.00;99.90;;;;;;5019583;28;20486;-71
2021/10/18 06:35:25;;;;;;;0.70;0.50;;;6.10;99.90;;;;;;5017336;28;20569;-70
2021/10/18 06:37:51;;;;;;;2.20;0.80;;;6.00;99.90;;;;;;5012721;28;20175;-70
2021/10/18 06:40:17;;;;;;;1.63;1.07;;;6.10;99.90;;;;;;5016127;28;20176;-69
2021/10/18 06:42:43;;;;;;;0.70;0.50;;;6.00;99.90;;;;;;5019439;28;20954;-68
2021/10/18 06:45:10;;;;;;;0.70;0.50;;;6.00;99.90;;;;;;5015582;28;20459;-69
2021/10/18 06:47:36;;;;;;;1.03;0.93;;;6.10;99.90;;;;;;5028141;28;20336;-68
2021/10/18 06:50:03;;;;;;;0.70;0.50;;;6.20;99.90;;;;;;5022213;28;20459;-69
2021/10/18 06:52:32;;;;;;;0.70;0.50;;;6.30;99.90;;;;;;5017400;28;20942;-69
2021/10/18 06:54:59;;;;;;;0.70;0.50;;;6.40;99.90;;;;;;5018773;28;20512;-70
2021/10/18 06:57:25;;;;;;;1.20;1.10;;;6.50;99.90;;;;;;5020746;28;20453;-70
2021/10/18 06:59:50;;;;;;;0.70;0.50;;;6.70;99.90;;;;;;5020196;28;20435;-68
2021/10/18 07:02:16;;;;;;;1.83;1.10;;;6.80;99.90;;;;;;5012247;28;20842;-70
2021/10/18 07:04:41;;;;;;;0.90;0.90;;;6.80;99.90;;;;;;5026019;28;20195;-69
2021/10/18 07:07:07;;;;;;;0.70;0.60;;;7.00;99.90;;;;;;5015427;28;20196;-69
2021/10/18 07:09:32;;;;;;;0.70;0.50;;;7.10;99.90;;;;;;5021101;28;20726;-69
2021/10/18 07:11:58;;;;;;;0.80;0.60;;;7.10;99.90;;;;;;5016493;28;20176;-69
2021/10/18 07:14:24;;;;;;;1.37;1.27;;;7.30;99.90;;;;;;5019222;28;20645;-69
2021/10/18 07:16:50;;;;;;;2.20;1.43;;;7.40;99.90;;;;;;5013411;28;20184;-69
2021/10/18 07:19:16;;;;;;;1.87;1.20;;;7.50;99.90;;;;;;5024018;28;20184;-69
2021/10/18 07:21:42;;;;;;;1.20;1.00;;;7.50;99.90;;;;;;5024511;28;20492;-69
2021/10/18 07:24:08;;;;;;;2.57;1.27;;;7.60;99.90;;;;;;5028502;28;20438;-69
2021/10/18 07:26:34;;;;;;;1.17;1.07;;;7.80;99.90;;;;;;5024622;28;20203;-70
2021/10/18 07:29:00;;;;;;;1.03;0.93;;;7.80;99.90;;;;;;5015120;28;20949;-69
2021/10/18 07:31:26;;;;;;;0.90;0.60;;;7.90;99.90;;;;;;5021945;28;20431;-70
2021/10/18 07:33:55;;;;;;;0.90;0.67;;;8.00;99.90;;;;;;5025862;28;20434;-70
2021/10/18 07:36:25;;;;;;;0.70;0.50;;;8.00;99.90;;;;;;5012941;28;20199;-70
2021/10/18 07:38:52;;;;;;;0.90;0.70;;;8.10;99.90;;;;;;5026943;28;20454;-69
2021/10/18 07:41:19;;;;;;;1.30;1.20;;;8.20;99.90;;;;;;5019009;28;20431;-69
2021/10/18 07:43:45;;;;;;;1.00;0.90;;;8.30;99.90;;;;;;5020776;28;20419;-69
2021/10/18 07:46:10;;;;;;;1.40;1.03;;;8.30;99.90;;;;;;5014911;28;20530;-69
2021/10/18 07:48:36;;;;;;;0.77;0.77;;;8.30;99.90;;;;;;5019164;28;20549;-69
2021/10/18 07:51:02;;;;;;;1.80;1.70;;;8.50;99.90;;;;;;5025681;28;20171;-69
2021/10/18 07:53:28;;;;;;;1.03;0.93;;;8.70;99.90;;;;;;5019643;28;20183;-70
2021/10/18 07:55:54;;;;;;;4.70;1.80;;;8.70;99.90;;;;;;5022609;28;20497;-70
2021/10/18 07:58:22;;;;;;;1.30;1.20;;;8.80;99.90;;;;;;5031786;28;20211;-69
2021/10/18 08:00:48;;;;;;;0.87;0.87;;;8.90;99.90;;;;;;5017609;28;20431;-69
2021/10/18 08:03:14;;;;;;;1.40;1.30;;;9.10;99.90;;;;;;5028152;28;20485;-70
2021/10/18 08:05:39;;;;;;;2.50;2.30;;;9.10;99.90;;;;;;5020479;28;20290;-69
2021/10/18 08:08:06;;;;;;;0.70;0.50;;;9.30;99.90;;;;;;5029625;28;20249;-69
2021/10/18 08:10:31;;;;;;;1.13;1.03;;;9.60;99.90;;;;;;5029153;28;20225;-69
2021/10/18 08:12:59;;;;;;;0.80;0.60;;;9.60;99.90;;;;;;5014941;28;20427;-70
2021/10/18 08:15:27;;;;;;;1.40;0.93;;;9.90;99.90;;;;;;5017901;28;20190;-69
2021/10/18 08:17:54;;;;;;;1.47;1.37;;;9.70;99.90;;;;;;5021070;28;20430;-70
2021/10/18 08:20:20;;;;;;;1.67;1.17;;;9.80;99.90;;;;;;5029318;28;20483;-70
2021/10/18 08:22:46;;;;;;;2.03;1.33;;;10.30;99.90;;;;;;5020695;28;20437;-70
2021/10/18 08:25:12;;;;;;;6.20;0.93;;;10.60;99.90;;;;;;5018530;28;20508;-69
2021/10/18 08:27:37;;;;;;;0.70;0.70;;;11.00;99.90;;;;;;5033112;28;20462;-70
2021/10/18 08:30:05;;;;;;;2.30;2.10;;;11.50;99.90;;;;;;5020821;28;20188;-70
2021/10/18 08:32:30;;;;;;;2.53;2.33;;;11.40;99.90;;;;;;5020821;28;20169;-70
2021/10/18 08:34:56;;;;;;;3.83;1.87;;;11.90;99.90;;;;;;5019938;28;20446;-70
2021/10/18 08:37:22;;;;;;;1.47;1.27;;;11.60;99.90;;;;;;5014647;28;20208;-70
2021/10/18 08:42:27;;;;;;;1.63;1.20;;;12.40;99.90;;;;;;5026849;28;20176;-70
2021/10/18 08:44:52;;;;;;;2.23;2.13;;;13.00;99.90;;;;;;5013781;28;20807;-70
2021/10/18 08:47:18;;;;;;;2.73;2.60;;;12.90;99.90;;;;;;5014186;28;20490;-70
2021/10/18 08:49:44;;;;;;;1.93;1.00;;;13.10;99.90;;;;;;5021803;28;20184;-71
2021/10/18 08:52:11;;;;;;;2.00;1.27;;;13.40;99.90;;;;;;5019484;28;20423;-69
2021/10/18 08:54:37;;;;;;;1.80;1.27;;;13.50;99.90;;;;;;5030918;28;20450;-70
2021/10/18 08:57:02;;;;;;;2.17;1.40;;;13.30;99.90;;;;;;5018500;28;20454;-70
2021/10/18 08:59:28;;;;;;;1.93;1.00;;;12.90;99.90;;;;;;5026100;28;20544;-70
2021/10/18 09:01:57;;;;;;;3.73;0.83;;;13.10;99.90;;;;;;5014523;28;20180;-69
2021/10/18 09:04:31;;;;;;;3.47;2.03;;;13.10;99.90;;;;;;5020867;28;20175;-70
2021/10/18 09:07:01;;;;;;;1.00;0.90;;;12.80;99.90;;;;;;5014473;28;20455;-70
2021/10/18 09:09:42;;;;;;;2.57;2.37;;;13.00;99.90;;;;;;5020434;28;20427;-70
2021/10/18 09:12:25;;;;;;;2.30;1.83;;;12.90;99.90;;;;;;5016903;28;20441;-70
2021/10/18 09:14:51;;;;;;;1.17;1.10;;;13.20;99.90;;;;;;5015392;28;21027;-70
2021/10/18 09:17:33;;;;;;;1.63;1.53;;;13.70;99.90;;;;;;5024515;28;20454;-70
2021/10/18 09:20:24;;;;;;;7.00;2.13;;;13.70;99.90;;;;;;5017113;28;20446;-70
2021/10/18 09:22:51;;;;;;;2.63;1.20;;;13.60;99.90;;;;;;5018486;28;20470;-67
2021/10/18 09:25:34;;;;;;;1.20;1.10;;;13.30;99.90;;;;;;5015773;28;20451;-67
2021/10/18 09:28:10;;;;;;;1.93;1.43;;;13.30;99.90;;;;;;5023694;28;20836;-67
2021/10/18 09:30:47;;;;;;;4.70;1.47;;;13.20;99.90;;;;;;5023249;28;20461;-70
2021/10/18 09:33:22;;;;;;;2.60;1.27;;;13.40;99.90;;;;;;5013134;28;20437;-70
2021/10/18 09:35:49;;;;;;;5.37;2.60;;;13.70;99.90;;;;;;5016107;28;20538;-70
2021/10/18 09:38:17;;;;;;;1.30;1.20;;;14.30;99.90;;;;;;5021493;28;20426;-70
2021/10/18 09:40:45;;;;;;;3.23;3.03;;;14.60;99.90;;;;;;5026505;28;20440;-70
2021/10/18 09:43:20;;;;;;;4.87;1.77;;;15.30;99.90;;;;;;5022579;28;20462;-68
2021/10/18 10:56:28;;;;;;;1.33;1.10;;;16.70;99.90;;;;;;5030340;28;20462;-68
2021/10/18 10:59:28;;;;;;;1.50;1.20;;;16.30;99.90;;;;;;5014201;28;20415;-68
2021/10/18 11:01:59;;;;;;;5.20;1.63;;;16.30;99.90;;;;;;5012734;28;20824;-69
2021/10/18 11:04:31;;;;;;;2.30;2.10;;;16.50;99.90;;;;;;5018025;28;20474;-68
2021/10/18 11:06:57;;;;;;;1.30;0.80;;;16.70;99.90;;;;;;5019017;28;21019;-68
2021/10/18 11:09:41;;;;;;;6.03;1.53;;;18.00;99.90;;;;;;5016322;28;20430;-68
2021/10/18 11:12:29;;;;;;;2.20;1.00;;;19.50;99.90;;;;;;5013977;28;20765;-69
2021/10/18 11:15:06;;;;;;;1.53;1.43;;;20.10;99.90;;;;;;5016147;28;20450;-68
2021/10/18 11:17:40;;;;;;;3.43;1.00;;;21.20;99.90;;;;;;5017472;28;20932;-69
2021/10/18 11:20:11;;;;;;;2.90;1.93;;;21.80;99.90;;;;;;5011851;28;20430;-68
2021/10/18 11:22:42;;;;;;;2.50;2.00;;;21.60;99.90;;;;;;5026779;28;20422;-68
2021/10/18 11:25:23;;;;;;;5.97;2.07;;;19.20;99.90;;;;;;5035763;28;20936;-68
2021/10/18 11:27:52;;;;;;;4.10;2.07;;;20.80;99.90;;;;;;5031774;28;20575;-68
2021/10/18 11:30:20;;;;;;;2.87;1.40;;;21.70;99.90;;;;;;5034711;28;20969;-68
2021/10/18 11:32:58;;;;;;;2.83;2.63;;;21.90;99.90;;;;;;5034214;28;20417;-68
2021/10/18 11:35:25;;;;;;;7.00;2.40;;;21.60;99.90;;;;;;5021397;28;20470;-69
2021/10/18 11:37:58;;;;;;;2.20;2.00;;;22.10;99.90;;;;;;5022004;28;20442;-68
2021/10/18 11:40:34;;;;;;;4.50;1.67;;;22.90;99.90;;;;;;5017115;28;20434;-69
2021/10/18 11:43:22;;;;;;;1.90;1.80;;;24.30;99.90;;;;;;5017049;28;20434;-69
2021/10/18 11:45:51;;;;;;;2.03;1.53;;;25.70;94.80;;;;;;5023637;28;20881;-69
2021/10/18 11:48:21;;;;;;;4.73;2.50;;;26.90;89.20;;;;;;5019391;28;20461;-69
2021/10/18 11:50:52;;;;;;;2.80;1.60;;;27.20;81.60;;;;;;5025215;28;20522;-69
2021/10/18 11:53:28;;;;;;;2.33;1.80;;;26.80;75.70;;;;;;5020770;28;20881;-69
2021/10/18 11:55:59;;;;;;;1.63;1.40;;;26.70;74.20;;;;;;5023106;28;21030;-69
2021/10/18 11:58:34;;;;;;;2.50;2.07;;;26.50;73.30;;;;;;5021516;28;20461;-68
2021/10/18 12:01:03;;;;;;;1.50;1.30;;;25.10;75.00;;;;;;5016412;28;20429;-69
2021/10/18 12:03:31;;;;;;;2.17;1.90;;;26.00;75.80;;;;;;5028394;28;20426;-69
2021/10/18 12:06:00;;;;;;;2.53;2.30;;;26.00;74.70;;;;;;5029235;28;20864;-69
2021/10/18 12:08:26;;;;;;;1.43;0.97;;;25.50;74.20;;;;;;5028224;28;20472;-69
2021/10/18 12:10:52;;;;;;;3.33;2.60;;;25.70;78.30;;;;;;5014975;28;20430;-69
2021/10/18 12:13:30;;;;;;;3.80;2.23;;;25.20;77.40;;;;;;5026421;28;20434;-69
2021/10/18 12:16:25;;;;;;;2.13;1.57;;;25.90;77.30;;;;;;5014353;28;20557;-68
2021/10/18 12:18:58;;;;;;;1.63;1.53;;;25.30;74.30;;;;;;5024516;28;20493;-69
2021/10/18 12:21:44;;;;;;;3.00;2.40;;;25.30;75.30;;;;;;5033707;28;20452;-69
2021/10/18 12:24:15;;;;;;;4.80;1.70;;;25.10;77.30;;;;;;5021551;28;20431;-69
2021/10/18 12:26:43;;;;;;;1.97;1.70;;;26.50;77.10;;;;;;5024679;28;20465;-69
2021/10/18 12:29:18;;;;;;;2.83;2.30;;;26.60;72.80;;;;;;5032501;28;20434;-69
2021/10/18 12:31:44;;;;;;;2.40;2.00;;;26.20;71.50;;;;;;5027003;28;20440;-69
2021/10/18 12:34:21;;;;;;;2.60;2.20;;;26.50;73.40;;;;;;5024306;28;20430;-69
2021/10/18 12:37:02;;;;;;;1.53;1.40;;;26.70;71.90;;;;;;5022469;28;20860;-69
2021/10/18 12:39:43;;;;;;;2.97;1.70;;;27.10;68.60;;;;;;5018847;28;20430;-68
2021/10/18 12:42:14;;;;;;;1.83;1.17;;;26.30;67.80;;;;;;5029850;28;20492;-69
2021/10/18 12:44:43;;;;;;;1.77;1.50;;;26.20;72.90;;;;;;5019444;28;21087;-69
2021/10/18 12:47:17;;;;;;;2.90;1.97;;;26.20;71.90;;;;;;5024670;28;20863;-69
2021/10/18 12:49:51;;;;;;;1.70;1.60;;;26.00;71.40;;;;;;5017238;28;20501;-69
2021/10/18 12:52:26;;;;;;;1.83;1.67;;;24.20;72.40;;;;;;5016798;28;20477;-69
2021/10/18 12:54:52;;;;;;;2.33;1.40;;;24.00;77.00;;;;;;5017636;28;20449;-69
2021/10/18 12:57:24;;;;;;;2.63;1.47;;;22.40;76.60;;;;;;5021933;28;20443;-69
2021/10/18 13:00:18;;;;;;;2.70;1.70;;;21.90;85.30;;;;;;5026179;28;20175;-69
2021/10/18 13:02:46;;;;;;;2.90;1.57;;;20.40;89.70;;;;;;5025309;28;20484;-69
2021/10/18 13:05:15;;;;;;;3.37;3.00;;;20.10;95.90;;;;;;5026274;28;20921;-69
2021/10/18 13:07:57;;;;;;;1.47;1.37;;;19.90;99.90;;;;;;5013739;28;20455;-69
2021/10/18 13:10:32;;;;;;;1.40;1.07;;;19.80;99.90;;;;;;5021182;28;20434;-69
2021/10/18 13:13:04;;;;;;;3.13;2.93;;;19.60;99.90;;;;;;5016736;28;20434;-69
2021/10/18 13:15:29;;;;;;;1.57;1.47;;;19.20;99.90;;;;;;5019976;28;20529;-69
2021/10/18 13:17:55;;;;;;;2.93;1.77;;;19.00;99.90;;;;;;5017864;28;20573;-69
2021/10/18 13:20:25;;;;;;;1.73;1.47;;;19.00;99.90;;;;;;5014173;28;20228;-68
2021/10/18 13:22:53;;;;;;;1.53;1.23;;;19.00;99.90;;;;;;5017022;28;20781;-69
2021/10/18 13:25:20;;;;;;;1.63;1.43;;;18.70;99.90;;;;;;5020510;28;20459;-69
2021/10/18 13:27:46;;;;;;;1.57;1.47;;;18.40;99.90;;;;;;5014146;28;20824;-68
2021/10/18 13:30:13;;;;;;;1.30;1.20;;;18.10;99.90;;;;;;5023759;28;20431;-69
2021/10/18 13:32:39;;;;;;;1.73;1.63;;;17.90;99.90;;;;;;5018243;28;20176;-68
2021/10/18 13:35:06;;;;;;;4.73;4.43;;;17.60;99.90;;;;;;5012840;28;20971;-70
2021/10/18 13:37:32;;;;;;;3.00;1.50;;;17.40;99.90;;;;;;5014880;28;20427;-69
2021/10/18 13:39:58;;;;;;;1.10;1.00;;;17.00;99.90;;;;;;5016165;28;20442;-68
2021/10/18 13:42:24;;;;;;;2.40;1.10;;;16.50;99.90;;;;;;5018651;28;20473;-70
2021/10/18 13:44:50;;;;;;;0.90;0.60;;;16.40;99.90;;;;;;5026401;28;20210;-69
2021/10/18 13:47:16;;;;;;;1.23;0.80;;;16.20;99.90;;;;;;5031817;28;20195;-69
2021/10/18 13:49:41;;;;;;;2.07;1.90;;;15.80;99.90;;;;;;5023063;28;20422;-69
2021/10/18 13:52:07;;;;;;;1.10;1.00;;;15.60;99.90;;;;;;5021374;28;20504;-69
2021/10/18 13:54:33;;;;;;;1.20;0.87;;;15.70;99.90;;;;;;5024979;28;20549;-69
2021/10/18 13:56:59;;;;;;;1.03;0.93;;;15.50;99.90;;;;;;5020243;28;20675;-69
2021/10/18 13:59:25;;;;;;;1.70;1.60;;;15.20;99.90;;;;;;5021374;28;20446;-68
2021/10/18 14:01:50;;;;;;;6.40;2.77;;;15.30;99.90;;;;;;5019283;28;20274;-68
2021/10/18 14:04:18;;;;;;;1.10;0.90;;;15.40;99.90;;;;;;5026371;28;20180;-69
2021/10/18 14:06:45;;;;;;;1.10;1.00;;;15.60;99.90;;;;;;5025446;28;20298;-68
2021/10/18 14:09:12;;;;;;;1.90;1.63;;;15.60;99.90;;;;;;5016850;28;20430;-67